createdAt,value
2022-10-18T00:00:06.878Z,4.40
2022-10-18T00:02:54.917Z,4.70
2022-10-18T00:05:21.550Z,6.10
2022-10-18T00:07:48.129Z,5.20
2022-10-18T00:10:14.783Z,6.00
2022-10-18T00:12:41.385Z,5.90
2022-10-18T00:15:08.672Z,4.80
2022-10-18T00:17:37.584Z,4.60
2022-10-18T00:20:05.829Z,4.50
2022-10-18T00:22:35.259Z,4.40
2022-10-18T00:25:01.883Z,4.70
2022-10-18T00:27:29.935Z,4.60
2022-10-18T00:29:56.726Z,4.90
2022-10-18T00:32:23.417Z,4.80
2022-10-18T00:34:50.200Z,4.00
2022-10-18T00:37:17.402Z,4.80
2022-10-18T00:39:44.533Z,4.70
2022-10-18T00:42:16.664Z,4.70
2022-10-18T00:44:43.234Z,4.90
2022-10-18T00:47:12.526Z,3.80
2022-10-18T00:49:45.947Z,4.50
2022-10-18T00:52:15.080Z,4.70
2022-10-18T00:54:44.031Z,5.00
2022-10-18T00:57:12.190Z,5.90
2022-10-18T00:59:40.912Z,5.10
2022-10-18T01:02:08.260Z,5.90
2022-10-18T01:04:35.148Z,4.50
2022-10-18T01:07:17.060Z,5.40
2022-10-18T01:09:55.662Z,4.90
2022-10-18T01:12:53.699Z,5.30
2022-10-18T01:15:49.955Z,5.50
2022-10-18T01:18:37.661Z,4.90
2022-10-18T01:21:19.606Z,5.40
2022-10-18T01:23:55.109Z,5.30
2022-10-18T01:26:32.175Z,5.70
2022-10-18T01:29:20.341Z,4.90
2022-10-18T01:31:55.302Z,5.00
2022-10-18T01:34:27.655Z,5.60
2022-10-18T01:36:57.034Z,4.70
2022-10-18T01:39:28.893Z,5.30
2022-10-18T01:41:58.616Z,4.70
2022-10-18T01:44:27.735Z,5.80
2022-10-18T01:46:56.401Z,4.90
2022-10-18T01:49:24.528Z,5.60
2022-10-18T01:51:51.241Z,5.70
2022-10-18T01:54:37.029Z,5.10
2022-10-18T01:57:14.138Z,4.90
2022-10-18T01:59:43.420Z,5.20
2022-10-18T02:02:15.621Z,5.50
2022-10-18T02:04:45.342Z,5.40
2022-10-18T02:08:00.113Z,5.30
2022-10-18T02:10:48.285Z,5.30
2022-10-18T02:13:19.206Z,5.10
2022-10-18T02:15:52.199Z,4.70
2022-10-18T02:18:25.068Z,5.70
2022-10-18T02:20:53.138Z,5.70
2022-10-18T02:23:23.039Z,5.10
2022-10-18T02:25:50.622Z,6.80
2022-10-18T02:28:17.426Z,5.10
2022-10-18T02:31:08.691Z,5.10
2022-10-18T02:33:51.227Z,5.20
2022-10-18T02:36:26.404Z,5.60
2022-10-18T02:38:57.117Z,5.30
2022-10-18T02:41:26.740Z,5.50
2022-10-18T02:43:53.922Z,5.80
2022-10-18T02:46:20.737Z,5.90
2022-10-18T02:48:47.565Z,6.20
2022-10-18T02:51:14.476Z,6.10
2022-10-18T02:53:41.227Z,5.00
2022-10-18T02:56:08.461Z,5.80
2022-10-18T02:58:35.094Z,6.00
2022-10-18T03:01:01.756Z,6.20
2022-10-18T03:03:28.366Z,6.30
2022-10-18T03:05:54.979Z,6.10
2022-10-18T03:08:22.201Z,5.70
2022-10-18T03:10:48.855Z,5.90
2022-10-18T03:13:15.898Z,6.20
2022-10-18T03:15:42.686Z,5.80
2022-10-18T03:18:09.279Z,5.60
2022-10-18T03:20:36.164Z,6.60
2022-10-18T03:23:02.824Z,6.00
2022-10-18T03:25:29.515Z,6.40
2022-10-18T03:27:56.116Z,7.30
2022-10-18T03:30:22.697Z,7.00
2022-10-18T03:32:49.344Z,7.00
2022-10-18T03:35:16.101Z,6.00
2022-10-18T03:37:42.744Z,6.30
2022-10-18T03:40:09.661Z,6.90
2022-10-18T03:42:36.387Z,5.80
2022-10-18T03:45:04.108Z,6.50
2022-10-18T03:47:30.881Z,5.70
2022-10-18T03:49:57.575Z,7.10
2022-10-18T03:52:24.298Z,5.60
2022-10-18T03:54:50.897Z,6.40
2022-10-18T03:57:17.642Z,6.60
2022-10-18T03:59:44.322Z,6.00
2022-10-18T04:02:10.922Z,7.20
2022-10-18T04:04:37.526Z,6.20
2022-10-18T04:07:04.166Z,7.40
2022-10-18T04:09:31.059Z,6.60
2022-10-18T04:11:57.692Z,6.50
2022-10-18T04:14:24.434Z,5.80
2022-10-18T04:16:51.070Z,6.40
2022-10-18T04:19:18.106Z,6.20
2022-10-18T04:21:44.878Z,5.90
2022-10-18T04:24:11.475Z,6.70
2022-10-18T04:26:38.123Z,6.90
2022-10-18T04:29:04.885Z,7.10
2022-10-18T04:31:31.529Z,7.30
2022-10-18T04:33:58.118Z,6.20
2022-10-18T04:36:24.772Z,6.40
2022-10-18T04:38:51.345Z,6.10
2022-10-18T04:41:17.925Z,6.60
2022-10-18T04:46:12.517Z,6.10
2022-10-18T04:48:39.211Z,7.40
2022-10-18T04:51:05.862Z,6.60
2022-10-18T04:53:32.524Z,6.60
2022-10-18T04:55:59.279Z,6.50
2022-10-18T04:58:25.937Z,7.10
2022-10-18T05:00:52.634Z,7.20
2022-10-18T05:03:19.301Z,7.50
2022-10-18T05:06:02.633Z,6.60
2022-10-18T05:11:02.139Z,5.80
2022-10-18T05:13:29.826Z,5.70
2022-10-18T05:15:58.803Z,6.90
2022-10-18T05:18:25.665Z,7.10
2022-10-18T05:20:52.288Z,7.20
2022-10-18T05:23:18.910Z,6.60
2022-10-18T05:25:45.711Z,6.40
2022-10-18T05:28:34.758Z,6.30
2022-10-18T05:31:07.883Z,6.50
2022-10-18T05:33:35.679Z,7.00
2022-10-18T05:36:03.083Z,7.00
2022-10-18T05:38:30.500Z,7.70
2022-10-18T05:40:58.184Z,6.30
2022-10-18T05:43:28.517Z,8.80
2022-10-18T05:45:55.477Z,5.80
2022-10-18T05:48:22.302Z,7.20
2022-10-18T05:50:48.935Z,5.70
2022-10-18T05:53:35.365Z,8.20
2022-10-18T05:56:02.885Z,6.60
2022-10-18T05:58:29.575Z,6.60
2022-10-18T06:01:00.575Z,7.00
2022-10-18T06:03:29.735Z,7.80
2022-10-18T06:06:06.182Z,6.30
2022-10-18T06:08:34.164Z,8.20
2022-10-18T06:11:06.675Z,6.90
2022-10-18T06:13:33.939Z,9.00
2022-10-18T06:16:00.731Z,5.50
2022-10-18T06:18:29.273Z,7.80
2022-10-18T06:20:59.622Z,6.30
2022-10-18T06:23:27.556Z,8.50
2022-10-18T06:25:58.695Z,9.40
2022-10-18T06:28:25.896Z,7.40
2022-10-18T06:30:52.568Z,14.10
2022-10-18T06:33:19.189Z,15.10
2022-10-18T06:36:06.234Z,9.10
2022-10-18T06:38:33.738Z,14.40
2022-10-18T06:41:00.776Z,9.60
2022-10-18T06:43:27.581Z,8.70
2022-10-18T06:45:54.434Z,8.10
2022-10-18T06:48:22.300Z,7.10
2022-10-18T06:50:57.130Z,8.30
2022-10-18T06:53:25.837Z,6.20
2022-10-18T06:55:53.236Z,6.40
2022-10-18T06:58:19.852Z,6.90
2022-10-18T07:00:47.068Z,7.30
2022-10-18T07:03:13.734Z,11.00
2022-10-18T07:05:40.353Z,10.30
2022-10-18T07:08:07.057Z,9.40
2022-10-18T07:10:33.755Z,5.90
2022-10-18T07:13:19.921Z,7.70
2022-10-18T07:15:47.147Z,5.80
2022-10-18T07:18:14.041Z,5.60
2022-10-18T07:20:40.707Z,7.90
2022-10-18T07:23:08.945Z,5.80
2022-10-18T07:25:35.655Z,6.00
2022-10-18T07:28:02.248Z,6.40
2022-10-18T07:30:28.860Z,6.20
2022-10-18T07:32:55.452Z,6.30
2022-10-18T07:35:22.225Z,5.80
2022-10-18T07:37:48.826Z,5.50
2022-10-18T07:40:15.527Z,6.30
2022-10-18T07:42:42.109Z,4.90
2022-10-18T07:45:09.890Z,6.00
2022-10-18T07:47:36.743Z,5.60
2022-10-18T07:50:03.745Z,5.60
2022-10-18T07:52:30.335Z,6.70
2022-10-18T07:54:56.941Z,8.40
2022-10-18T07:57:23.545Z,7.40
2022-10-18T07:59:55.781Z,5.60
2022-10-18T08:02:23.922Z,6.70
2022-10-18T08:04:50.573Z,5.40
2022-10-18T08:07:17.297Z,5.70
2022-10-18T08:09:43.938Z,6.10
2022-10-18T08:12:10.588Z,6.90
2022-10-18T08:14:37.224Z,6.60
2022-10-18T08:17:03.874Z,6.10
2022-10-18T08:19:30.444Z,6.10
2022-10-18T08:21:57.039Z,5.90
2022-10-18T08:24:23.927Z,4.80
2022-10-18T08:26:50.559Z,4.00
2022-10-18T08:29:23.375Z,4.30
2022-10-18T08:31:51.585Z,5.00
2022-10-18T08:34:19.894Z,5.10
2022-10-18T08:36:46.856Z,4.20
2022-10-18T08:39:13.457Z,4.20
2022-10-18T08:41:51.797Z,6.10
2022-10-18T08:44:24.041Z,4.50
2022-10-18T08:46:58.078Z,4.60
2022-10-18T08:49:46.643Z,4.00
2022-10-18T08:52:16.451Z,4.30
2022-10-18T08:54:58.852Z,4.20
2022-10-18T08:57:25.677Z,4.70
2022-10-18T08:59:52.326Z,3.00
2022-10-18T09:02:43.706Z,2.80
2022-10-18T09:05:29.520Z,2.80
2022-10-18T09:07:56.089Z,4.10
2022-10-18T09:10:43.297Z,2.80
2022-10-18T09:13:24.656Z,2.60
2022-10-18T09:15:58.097Z,3.20
2022-10-18T09:20:59.432Z,2.70
2022-10-18T09:23:42.295Z,3.20
2022-10-18T09:26:19.407Z,3.00
2022-10-18T09:29:07.296Z,2.40
2022-10-18T09:31:45.389Z,2.40
2022-10-18T09:34:24.329Z,2.60
2022-10-18T09:36:52.084Z,2.60
2022-10-18T09:39:23.329Z,2.80
2022-10-18T09:41:58.471Z,2.70
2022-10-18T09:44:48.586Z,2.70
2022-10-18T09:47:21.300Z,2.40
2022-10-18T09:49:56.998Z,2.10
2022-10-18T09:52:34.098Z,2.30
2022-10-18T09:55:09.009Z,2.20
2022-10-18T09:57:43.156Z,2.00
2022-10-18T10:00:29.221Z,2.60
2022-10-18T10:02:55.833Z,2.60
2022-10-18T10:05:22.580Z,2.20
2022-10-18T10:07:56.415Z,2.30
2022-10-18T10:10:25.099Z,2.10
2022-10-18T10:13:15.615Z,2.60
2022-10-18T10:16:02.663Z,1.90
2022-10-18T10:18:39.539Z,2.30
2022-10-18T10:21:12.967Z,1.80
2022-10-18T10:23:59.854Z,2.00
2022-10-18T10:26:38.273Z,2.10
2022-10-18T10:29:44.699Z,2.80
2022-10-18T10:32:18.081Z,2.60
2022-10-18T10:34:45.231Z,2.00
2022-10-18T10:37:41.239Z,2.30
2022-10-18T10:40:19.616Z,2.00
2022-10-18T10:43:33.041Z,1.90
2022-10-18T10:46:05.590Z,2.80
2022-10-18T10:48:57.032Z,2.50
2022-10-18T10:51:39.193Z,2.40
2022-10-18T10:54:27.310Z,3.10
2022-10-18T10:56:57.591Z,2.50
2022-10-18T10:59:26.572Z,2.20
2022-10-18T11:02:22.578Z,2.30
2022-10-18T11:04:51.441Z,2.20
2022-10-18T11:07:35.751Z,2.20
2022-10-18T11:10:18.865Z,1.50
2022-10-18T11:12:49.906Z,1.50
2022-10-18T11:15:35.823Z,1.40
2022-10-18T11:18:08.111Z,1.80
2022-10-18T11:20:42.592Z,1.50
2022-10-18T11:23:13.853Z,1.40
2022-10-18T11:25:45.725Z,1.50
2022-10-18T11:28:31.429Z,1.50
2022-10-18T11:30:58.701Z,1.60
2022-10-18T11:34:07.166Z,1.60
2022-10-18T11:36:40.382Z,1.10
2022-10-18T11:39:25.541Z,1.60
2022-10-18T11:42:00.430Z,1.90
2022-10-18T11:44:49.427Z,1.20
2022-10-18T11:47:55.880Z,1.80
2022-10-18T11:50:37.826Z,1.50
2022-10-18T11:53:19.925Z,1.50
2022-10-18T11:56:12.369Z,1.50
2022-10-18T11:59:02.086Z,1.10
2022-10-18T12:01:41.268Z,1.80
2022-10-18T12:04:16.874Z,1.80
2022-10-18T12:06:47.125Z,1.40
2022-10-18T12:09:44.806Z,1.80
2022-10-18T12:12:16.061Z,1.70
2022-10-18T12:14:50.441Z,1.70
2022-10-18T12:17:46.382Z,1.60
2022-10-18T12:20:37.408Z,1.40
2022-10-18T12:23:10.879Z,1.60
2022-10-18T12:25:41.631Z,1.50
2022-10-18T12:28:08.235Z,1.50
2022-10-18T12:30:53.680Z,1.80
2022-10-18T12:33:28.595Z,1.50
2022-10-18T12:36:11.108Z,2.00
2022-10-18T12:38:45.288Z,1.80
2022-10-18T12:41:28.113Z,2.90
2022-10-18T12:44:07.512Z,1.90
2022-10-18T12:46:53.059Z,1.60
2022-10-18T12:49:28.509Z,1.90
2022-10-18T12:52:18.557Z,1.80
2022-10-18T12:55:06.112Z,1.80
2022-10-18T12:57:51.098Z,1.50
2022-10-18T13:00:29.701Z,2.20
2022-10-18T13:03:26.160Z,1.30
2022-10-18T13:05:57.204Z,2.20
2022-10-18T13:08:26.604Z,2.00
2022-10-18T13:11:08.733Z,1.70
2022-10-18T13:14:23.568Z,2.30
2022-10-18T13:17:18.545Z,2.00
2022-10-18T13:20:07.727Z,1.60
2022-10-18T13:23:38.279Z,2.00
2022-10-18T13:29:11.408Z,2.20
2022-10-18T13:31:58.196Z,2.80
2022-10-18T13:34:37.897Z,2.00
2022-10-18T13:37:18.386Z,3.00
2022-10-18T13:39:45.629Z,3.30
2022-10-18T13:42:15.317Z,2.30
2022-10-18T13:44:44.147Z,2.50
2022-10-18T13:47:31.467Z,3.60
2022-10-18T13:50:32.322Z,4.10
2022-10-18T13:53:04.710Z,2.50
2022-10-18T13:56:10.260Z,4.00
2022-10-18T13:59:15.129Z,5.10
2022-10-18T14:02:08.491Z,5.60
2022-10-18T14:04:43.447Z,4.00
2022-10-18T14:07:11.378Z,4.20
2022-10-18T14:09:52.354Z,4.40
2022-10-18T14:12:20.858Z,3.90
2022-10-18T14:15:06.887Z,3.30
2022-10-18T14:17:35.726Z,3.50
2022-10-18T14:20:20.597Z,4.00
2022-10-18T14:23:00.563Z,3.80
2022-10-18T14:25:29.964Z,3.80
2022-10-18T14:28:10.035Z,4.00
2022-10-18T14:30:52.184Z,3.50
2022-10-18T14:33:35.337Z,4.40
2022-10-18T14:36:09.199Z,3.80
2022-10-18T14:38:49.866Z,3.50
2022-10-18T14:41:21.738Z,4.10
2022-10-18T14:43:50.228Z,3.70
2022-10-18T14:46:28.111Z,4.30
2022-10-18T14:49:01.658Z,4.60
2022-10-18T14:51:33.577Z,4.50
2022-10-18T14:54:00.569Z,5.00
2022-10-18T14:56:29.652Z,6.80
2022-10-18T14:58:59.512Z,6.20
2022-10-18T15:01:30.260Z,4.60
2022-10-18T15:03:59.172Z,6.00
2022-10-18T15:06:26.566Z,6.00
2022-10-18T15:08:57.475Z,5.40
2022-10-18T15:11:25.779Z,6.00
2022-10-18T15:13:57.401Z,4.70
2022-10-18T15:16:27.560Z,5.60
2022-10-18T15:19:01.593Z,5.10
2022-10-18T15:21:28.311Z,4.60
2022-10-18T15:24:14.942Z,6.10
2022-10-18T15:26:44.474Z,8.30
2022-10-18T15:29:18.874Z,8.30
2022-10-18T15:31:47.629Z,6.50
2022-10-18T15:34:17.164Z,5.10
2022-10-18T15:36:44.707Z,4.20
2022-10-18T15:39:20.383Z,3.80
2022-10-18T15:41:54.397Z,3.20
2022-10-18T15:44:52.737Z,4.50
2022-10-18T15:47:24.409Z,5.00
2022-10-18T15:49:54.937Z,3.00
2022-10-18T15:52:24.579Z,3.30
2022-10-18T15:54:51.172Z,3.30
2022-10-18T15:57:17.873Z,3.90
2022-10-18T16:00:03.440Z,4.20
2022-10-18T16:02:38.589Z,4.10
2022-10-18T16:05:05.512Z,4.20
2022-10-18T16:07:32.428Z,4.10
2022-10-18T16:09:59.264Z,3.00
2022-10-18T16:12:25.938Z,2.90
2022-10-18T16:14:52.549Z,3.40
2022-10-18T16:17:19.525Z,3.20
2022-10-18T16:19:46.193Z,3.60
2022-10-18T16:24:44.985Z,4.50
2022-10-18T16:27:11.764Z,3.60
2022-10-18T16:29:38.391Z,4.00
2022-10-18T16:32:05.045Z,4.50
2022-10-18T16:34:31.763Z,5.90
2022-10-18T16:36:58.666Z,6.60
2022-10-18T16:39:25.751Z,7.90
2022-10-18T16:41:52.401Z,8.10
2022-10-18T16:44:19.221Z,9.90
2022-10-18T16:46:47.646Z,10.20
2022-10-18T16:49:24.445Z,10.30
2022-10-18T16:51:53.431Z,7.60
2022-10-18T16:54:20.215Z,4.90
2022-10-18T16:56:49.899Z,4.00
2022-10-18T16:59:28.727Z,4.40
2022-10-18T17:01:55.566Z,3.30
2022-10-18T17:04:22.337Z,4.40
2022-10-18T17:06:49.162Z,3.80
2022-10-18T17:09:16.151Z,4.50
2022-10-18T17:11:43.013Z,4.70
2022-10-18T17:14:09.614Z,4.30
2022-10-18T17:16:38.158Z,4.40
2022-10-18T17:19:06.990Z,4.10
2022-10-18T17:21:34.461Z,3.60
2022-10-18T17:24:02.623Z,3.50
2022-10-18T17:26:30.280Z,4.00
2022-10-18T17:29:00.615Z,3.80
2022-10-18T17:31:29.064Z,4.40
2022-10-18T17:33:57.818Z,3.60
2022-10-18T17:36:24.499Z,3.70
2022-10-18T17:38:52.451Z,3.80
2022-10-18T17:41:19.544Z,3.70
2022-10-18T17:43:47.508Z,3.20
2022-10-18T17:46:14.437Z,3.80
2022-10-18T17:48:41.550Z,4.20
2022-10-18T17:51:09.902Z,4.30
2022-10-18T17:53:36.863Z,4.00
2022-10-18T17:56:04.166Z,3.40
2022-10-18T17:58:31.629Z,3.60
2022-10-18T18:01:18.133Z,3.50
2022-10-18T18:03:47.107Z,3.50
2022-10-18T18:06:17.854Z,3.40
2022-10-18T18:08:45.343Z,3.70
2022-10-18T18:11:12.477Z,4.10
2022-10-18T18:13:39.319Z,3.40
2022-10-18T18:16:21.450Z,4.10
2022-10-18T18:18:50.414Z,3.80
2022-10-18T18:21:17.780Z,3.20
2022-10-18T18:23:45.054Z,2.90
2022-10-18T18:26:13.625Z,3.30
2022-10-18T18:28:40.587Z,2.80
2022-10-18T18:31:25.210Z,3.00
2022-10-18T18:33:54.135Z,3.20
2022-10-18T18:36:21.757Z,3.00
2022-10-18T18:38:55.463Z,2.60
2022-10-18T18:41:26.442Z,3.70
2022-10-18T18:44:03.677Z,3.60
2022-10-18T18:46:36.053Z,3.10
2022-10-18T18:49:02.960Z,3.10
2022-10-18T18:51:29.884Z,2.80
2022-10-18T18:53:56.566Z,2.80
2022-10-18T18:56:25.358Z,2.60
2022-10-18T18:58:53.569Z,5.90
2022-10-18T19:01:23.958Z,4.40
2022-10-18T19:03:53.040Z,3.80
2022-10-18T19:06:26.703Z,3.00
2022-10-18T19:08:59.718Z,3.20
2022-10-18T19:11:28.865Z,3.70
2022-10-18T19:13:55.665Z,3.60
2022-10-18T19:16:25.787Z,2.70
2022-10-18T19:18:58.022Z,2.80
2022-10-18T19:21:27.048Z,4.80
2022-10-18T19:23:55.529Z,3.00
2022-10-18T19:26:31.730Z,2.90
2022-10-18T19:29:04.910Z,3.10
2022-10-18T19:31:31.895Z,3.30
2022-10-18T19:33:59.599Z,4.20
2022-10-18T19:36:28.185Z,6.40
2022-10-18T19:38:55.267Z,9.40
2022-10-18T19:41:23.137Z,4.50
2022-10-18T19:43:51.791Z,3.00
2022-10-18T19:46:18.476Z,3.00
2022-10-18T19:48:45.222Z,2.20
2022-10-18T19:51:15.980Z,2.90
2022-10-18T19:53:46.401Z,2.40
2022-10-18T19:56:18.458Z,2.20
2022-10-18T19:58:45.891Z,2.20
2022-10-18T20:01:13.870Z,3.00
2022-10-18T20:03:40.707Z,2.40
2022-10-18T20:06:07.916Z,2.90
2022-10-18T20:08:35.671Z,2.60
2022-10-18T20:11:05.663Z,2.80
2022-10-18T20:13:32.864Z,2.10
2022-10-18T20:15:59.993Z,2.40
2022-10-18T20:18:26.887Z,2.20
2022-10-18T20:20:53.637Z,2.10
2022-10-18T20:23:21.220Z,2.60
2022-10-18T20:25:56.772Z,2.30
2022-10-18T20:28:24.453Z,1.90
2022-10-18T20:31:10.108Z,2.10
2022-10-18T20:33:37.631Z,2.40
2022-10-18T20:36:09.964Z,3.00
2022-10-18T20:38:38.914Z,3.10
2022-10-18T20:41:11.972Z,3.30
2022-10-18T20:43:39.347Z,4.20
2022-10-18T20:46:07.216Z,5.20
2022-10-18T20:48:34.838Z,2.50
2022-10-18T20:51:10.102Z,2.30
2022-10-18T20:53:37.303Z,2.90
2022-10-18T20:56:06.134Z,2.90
2022-10-18T20:58:33.986Z,3.30
2022-10-18T21:01:05.632Z,2.70
2022-10-18T21:03:32.549Z,2.60
2022-10-18T21:06:01.748Z,2.60
2022-10-18T21:08:28.750Z,2.30
2022-10-18T21:10:55.312Z,1.80
2022-10-18T21:13:21.916Z,2.20
2022-10-18T21:15:56.454Z,2.00
2022-10-18T21:18:29.154Z,1.70
2022-10-18T21:21:05.443Z,1.80
2022-10-18T21:23:33.247Z,1.70
2022-10-18T21:25:59.838Z,2.40
2022-10-18T21:28:26.538Z,1.90
2022-10-18T21:30:53.339Z,2.20
2022-10-18T21:33:19.985Z,2.20
2022-10-18T21:35:46.673Z,2.50
2022-10-18T21:38:13.351Z,2.10
2022-10-18T21:40:43.920Z,2.00
2022-10-18T21:43:11.292Z,1.90
2022-10-18T21:45:37.905Z,2.10
2022-10-18T21:48:04.927Z,2.30
2022-10-18T21:50:33.690Z,1.90
2022-10-18T21:53:00.371Z,2.00
2022-10-18T21:55:27.042Z,1.80
2022-10-18T21:57:53.654Z,2.20
2022-10-18T22:00:20.542Z,1.80
2022-10-18T22:02:47.619Z,1.80
2022-10-18T22:05:14.220Z,2.20
2022-10-18T22:07:40.949Z,2.10
2022-10-18T22:10:07.874Z,1.80
2022-10-18T22:12:34.485Z,2.60
2022-10-18T22:15:02.117Z,1.70
2022-10-18T22:17:29.030Z,1.90
2022-10-18T22:19:55.643Z,2.20
2022-10-18T22:22:23.026Z,2.30
2022-10-18T22:24:49.598Z,2.30
2022-10-18T22:27:16.197Z,2.30
2022-10-18T22:29:42.792Z,1.90
2022-10-18T22:32:09.515Z,1.90
2022-10-18T22:34:36.226Z,2.10
2022-10-18T22:37:02.916Z,1.70
2022-10-18T22:39:29.570Z,2.60
2022-10-18T22:41:56.761Z,2.10
2022-10-18T22:44:24.205Z,2.20
2022-10-18T22:46:51.055Z,2.00
2022-10-18T22:49:17.748Z,2.70
2022-10-18T22:51:44.435Z,1.80
2022-10-18T22:54:11.024Z,2.40
2022-10-18T22:56:38.014Z,2.20
2022-10-18T22:59:05.076Z,2.50
2022-10-18T23:01:31.793Z,2.50
2022-10-18T23:03:59.607Z,1.90
2022-10-18T23:06:32.320Z,1.90
2022-10-18T23:09:01.630Z,1.70
2022-10-18T23:11:28.476Z,2.20
2022-10-18T23:13:55.295Z,2.00
2022-10-18T23:16:22.686Z,2.30
2022-10-18T23:18:51.319Z,2.30
2022-10-18T23:21:18.491Z,2.40
2022-10-18T23:23:45.181Z,2.30
2022-10-18T23:26:17.808Z,2.10
2022-10-18T23:28:46.826Z,2.10
2022-10-18T23:31:19.390Z,2.20
2022-10-18T23:33:48.158Z,2.70
2022-10-18T23:36:15.840Z,2.50
2022-10-18T23:38:43.257Z,1.90
2022-10-18T23:41:11.811Z,2.60
2022-10-18T23:43:39.095Z,1.90
2022-10-18T23:46:05.997Z,1.90
2022-10-18T23:48:33.686Z,2.40
2022-10-18T23:51:01.162Z,2.30
2022-10-18T23:53:28.603Z,2.50
2022-10-18T23:55:58.032Z,2.50
2022-10-18T23:58:26.255Z,2.50
